Decoded Metar for LDSP (SPLIT in CROATIA) (IATA:SPU) | Meteo·Mobile Aviation Weather
aviador You're here:

LDSP Decoded Metar

SPLIT in CROATIA
Report Time2018-11-18 01:00:00
UTC Time2018-11-18 01:20:10
Flight Rules vfr VFR
Wind040° at 09 kt
W.Decomp.*RWY 05: 8.8 kt HW 1.9 kt LCW
W.Rank040° ranks 8
Current wind is below 040° avg. (9.8)
Visibility9999 m
Phenomena:N/A
Clouds:N/A
Expected CloudBase > 4,800 ft AGL from Temp-Dew spread
CeilingNone
Temp08°C (ISA -7)
Dew Point-4°C (43% RH)
AAT2.3°C
QNH1019 hPa
Density Alt-892 ft
Elevation69 ft
Report Wrong Elevation
Raw Report
LDSP 180100Z AUTO 04009KT CAVOK 08/M04 Q1019=

Extra information for LDSP:More info

Metar Taf Metar & Taf Last 4 Metars F.Rules Stats Wind Profile Meteogram Temp Stats Airport Information Weather charts Add Link Nearby VenuesMetar ALERT Operation Metar Decoded Social comments